createdAt,value
2016-10-12T14:11:45.392Z,2288
2016-10-12T14:12:05.993Z,2420
2016-10-12T14:12:26.603Z,2560
2016-10-12T14:12:48.154Z,2692
2016-10-12T14:13:09.717Z,2796
2016-10-12T14:13:31.209Z,2884
2016-10-12T14:13:52.637Z,2940
2016-10-12T14:14:13.250Z,2976
2016-10-12T14:14:34.669Z,2988
2016-10-12T14:14:55.260Z,2984
2016-10-12T14:15:15.852Z,2984
2016-10-12T14:15:36.463Z,2964
2016-10-12T14:15:57.064Z,2928
2016-10-12T14:16:17.669Z,2880
2016-10-12T14:16:39.255Z,2828
2016-10-12T14:16:59.873Z,2788
2016-10-12T14:17:20.507Z,2816
2016-10-12T14:17:41.128Z,2908
2016-10-12T14:18:03.153Z,3052
2016-10-12T14:18:23.819Z,3200
2016-10-12T14:18:44.447Z,3300
2016-10-12T14:19:05.689Z,3392
2016-10-12T14:19:26.329Z,3428
2016-10-12T14:19:46.966Z,3416
2016-10-12T14:20:07.585Z,3424
2016-10-12T14:20:28.706Z,3424
2016-10-12T14:20:50.180Z,3412
2016-10-12T14:21:10.780Z,3380
2016-10-12T14:21:32.242Z,3308
2016-10-12T14:21:53.751Z,3232
2016-10-12T14:22:15.151Z,3164
2016-10-12T14:22:35.775Z,3108
2016-10-12T14:22:56.417Z,3100
2016-10-12T14:23:17.034Z,3100
2016-10-12T14:23:37.677Z,3096
2016-10-12T14:23:59.206Z,3092
2016-10-12T14:24:21.660Z,3064
2016-10-12T14:24:43.202Z,3024
2016-10-12T14:25:03.800Z,2980
2016-10-12T14:25:24.408Z,2956
2016-10-12T14:25:45.006Z,2904
2016-10-12T14:26:05.635Z,2844
2016-10-12T14:26:26.246Z,2812
2016-10-12T14:26:46.842Z,2792
2016-10-12T14:27:07.499Z,2816
2016-10-12T14:27:28.213Z,2832
2016-10-12T14:27:48.836Z,2836
2016-10-12T14:28:10.228Z,2812
2016-10-12T14:28:30.832Z,2768
2016-10-12T14:28:51.465Z,2692
2016-10-12T14:29:12.078Z,2620
2016-10-12T14:29:33.231Z,2528
2016-10-12T14:29:54.654Z,2460
2016-10-12T14:30:15.286Z,2400
2016-10-12T14:30:35.878Z,2356
2016-10-12T14:30:56.530Z,2296
2016-10-12T14:31:18.741Z,2208
2016-10-12T14:31:39.362Z,2144
2016-10-12T14:32:00.693Z,2116
2016-10-12T14:32:21.290Z,2104
2016-10-12T14:32:41.579Z,2100
2016-10-12T14:33:02.189Z,2112
2016-10-12T14:33:22.811Z,2112
2016-10-12T14:33:43.425Z,2132
2016-10-12T14:34:04.041Z,2148
2016-10-12T14:34:25.246Z,2176
2016-10-12T14:34:46.662Z,2212
2016-10-12T14:35:07.268Z,2252
2016-10-12T14:35:27.942Z,2284
2016-10-12T14:35:48.549Z,2336
2016-10-12T14:36:10.663Z,2408
2016-10-12T14:36:31.366Z,2492
2016-10-12T14:36:51.951Z,2576
2016-10-12T14:37:13.273Z,2640
2016-10-12T14:37:33.913Z,2688
2016-10-12T14:37:55.291Z,2692
2016-10-12T14:38:16.664Z,2652
2016-10-12T14:38:37.263Z,2588
2016-10-12T14:38:57.889Z,2516
2016-10-12T14:39:18.536Z,2448
2016-10-12T14:39:39.155Z,2400
2016-10-12T14:39:59.782Z,2372
2016-10-12T14:40:20.360Z,2352
2016-10-12T14:40:41.075Z,2304
2016-10-12T14:41:01.671Z,2260
2016-10-12T14:41:22.289Z,2200
2016-10-12T14:41:42.984Z,2160
2016-10-12T14:42:03.614Z,2144
2016-10-12T14:42:24.225Z,2124
2016-10-12T14:42:44.819Z,2096
2016-10-12T14:43:05.472Z,2032
2016-10-12T14:43:26.702Z,1960
2016-10-12T14:43:47.319Z,1880
2016-10-12T14:44:08.007Z,1816
2016-10-12T14:44:28.613Z,1756
2016-10-12T14:44:49.274Z,1696
2016-10-12T14:45:10.721Z,1652
2016-10-12T14:45:32.165Z,1588
2016-10-12T14:45:52.803Z,1524
2016-10-12T14:46:14.229Z,1452
2016-10-12T14:46:34.847Z,1404
2016-10-12T14:46:55.456Z,1376
2016-10-12T14:47:16.669Z,1372
2016-10-12T14:47:37.359Z,1376
2016-10-12T14:47:57.994Z,1376
2016-10-12T14:48:19.720Z,1384
2016-10-12T14:48:40.297Z,1392
2016-10-12T14:49:01.819Z,1400
2016-10-12T14:49:22.497Z,1408
2016-10-12T14:49:43.120Z,1436
2016-10-12T14:50:03.825Z,1476
2016-10-12T14:50:26.170Z,1496
2016-10-12T14:50:46.764Z,1484
2016-10-12T14:51:07.406Z,1468
2016-10-12T14:51:28.707Z,1452
2016-10-12T14:51:49.285Z,1436
2016-10-12T14:52:09.916Z,1404
2016-10-12T14:52:30.518Z,1360
2016-10-12T14:52:51.155Z,1320
2016-10-12T14:53:11.772Z,1328
2016-10-12T14:53:32.365Z,1344
2016-10-12T14:53:52.971Z,1376
2016-10-12T14:54:14.265Z,1400
2016-10-12T14:54:34.915Z,1428
2016-10-12T14:54:56.185Z,1448
2016-10-12T14:55:17.653Z,1432
2016-10-12T14:55:39.192Z,1420
2016-10-12T14:55:59.777Z,1420
2016-10-12T14:56:21.218Z,1420
2016-10-12T14:56:41.873Z,1416
2016-10-12T14:57:02.548Z,1416
2016-10-12T14:57:23.149Z,1428
2016-10-12T14:57:43.746Z,1436
2016-10-12T14:58:04.324Z,1432
2016-10-12T14:58:25.014Z,1424
2016-10-12T14:58:45.656Z,1416
2016-10-12T14:59:06.252Z,1416
2016-10-12T14:59:26.944Z,1416
2016-10-12T14:59:47.541Z,1404
2016-10-12T15:00:08.231Z,1380
2016-10-12T15:00:28.873Z,1352
2016-10-12T15:00:49.526Z,1316
2016-10-12T15:01:10.801Z,1292
2016-10-12T15:01:31.404Z,1272
2016-10-12T15:01:52.670Z,1252
2016-10-12T15:02:13.285Z,1244
2016-10-12T15:02:33.988Z,1240
2016-10-12T15:02:54.574Z,1248
2016-10-12T15:03:15.712Z,1256
2016-10-12T15:03:37.227Z,1264
2016-10-12T15:03:57.816Z,1276
2016-10-12T15:04:18.422Z,1288
2016-10-12T15:04:39.044Z,1304
2016-10-12T15:04:59.687Z,1300
2016-10-12T15:05:20.345Z,1292
2016-10-12T15:05:41.677Z,1272
2016-10-12T15:06:03.239Z,1228
2016-10-12T15:06:24.718Z,1184
2016-10-12T15:06:45.330Z,1140
2016-10-12T15:07:05.909Z,1096
2016-10-12T15:07:27.324Z,1064
2016-10-12T15:07:47.925Z,1040
2016-10-12T15:08:08.516Z,1020
2016-10-12T15:08:29.680Z,1008
2016-10-12T15:08:50.310Z,1016
2016-10-12T15:09:10.888Z,1028
2016-10-12T15:09:31.492Z,1044
2016-10-12T15:09:52.128Z,1056
2016-10-12T15:10:12.735Z,1068
2016-10-12T15:10:34.233Z,1088
2016-10-12T15:10:54.807Z,1100
2016-10-12T15:11:16.264Z,1112
2016-10-12T15:11:40.713Z,1128
2016-10-12T15:12:01.337Z,1152
2016-10-12T15:12:21.944Z,1188
2016-10-12T15:12:42.567Z,1220
2016-10-12T15:13:03.194Z,1252
2016-10-12T15:13:23.810Z,1272
2016-10-12T15:13:44.445Z,1280
2016-10-12T15:14:05.015Z,1268
2016-10-12T15:14:26.181Z,1252
2016-10-12T15:14:46.776Z,1232
2016-10-12T15:15:07.399Z,1208
2016-10-12T15:15:27.994Z,1184
2016-10-12T15:15:49.252Z,1152
2016-10-12T15:16:09.844Z,1120
2016-10-12T15:16:30.490Z,1080
2016-10-12T15:16:51.121Z,1060
2016-10-12T15:17:12.696Z,1060
2016-10-12T15:17:34.771Z,1092
2016-10-12T15:17:56.277Z,1148
2016-10-12T15:18:16.860Z,1216
2016-10-12T15:18:38.196Z,1260
2016-10-12T15:18:58.784Z,1268
2016-10-12T15:19:20.166Z,1228
2016-10-12T15:19:41.771Z,1156
2016-10-12T15:20:02.417Z,1080
2016-10-12T15:20:24.738Z,1000
2016-10-12T15:20:45.374Z,936
2016-10-12T15:21:06.002Z,896
2016-10-12T15:21:26.717Z,860
2016-10-12T15:21:47.322Z,832
2016-10-12T15:22:08.128Z,808
2016-10-12T15:22:30.182Z,784
2016-10-12T15:22:50.762Z,768
2016-10-12T15:23:12.026Z,756
2016-10-12T15:23:33.257Z,748
2016-10-12T15:23:53.845Z,748
2016-10-12T15:24:14.441Z,756
2016-10-12T15:24:35.083Z,768
2016-10-12T15:24:55.691Z,780
2016-10-12T15:25:16.295Z,800
2016-10-12T15:25:36.897Z,836
2016-10-12T15:25:57.470Z,868
2016-10-12T15:26:18.109Z,904
2016-10-12T15:26:38.768Z,932
2016-10-12T15:26:59.363Z,952
2016-10-12T15:27:20.714Z,960
2016-10-12T15:27:41.359Z,964
2016-10-12T15:28:02.687Z,972
2016-10-12T15:28:23.279Z,968
2016-10-12T15:28:44.693Z,960
2016-10-12T15:29:05.297Z,948
2016-10-12T15:29:27.097Z,936
2016-10-12T15:29:47.940Z,916
2016-10-12T15:30:08.636Z,900
2016-10-12T15:30:29.263Z,884
2016-10-12T15:30:50.780Z,864
2016-10-12T15:31:11.405Z,844
2016-10-12T15:31:32.022Z,820
2016-10-12T15:31:53.492Z,804
2016-10-12T15:32:14.129Z,808
2016-10-12T15:32:34.801Z,828
2016-10-12T15:32:57.191Z,852
2016-10-12T15:33:18.690Z,876
2016-10-12T15:33:40.251Z,900
2016-10-12T15:34:00.941Z,924
2016-10-12T15:34:21.789Z,932
2016-10-12T15:34:42.478Z,940
2016-10-12T15:35:03.214Z,952
2016-10-12T15:35:23.896Z,964
2016-10-12T15:35:44.550Z,988
2016-10-12T15:36:05.177Z,1008
2016-10-12T15:36:25.874Z,1048
2016-10-12T15:36:46.573Z,1096
2016-10-12T15:37:08.697Z,1136
2016-10-12T15:37:29.391Z,1160
2016-10-12T15:37:51.677Z,1188
2016-10-12T15:38:12.319Z,1220
2016-10-12T15:38:32.969Z,1232
2016-10-12T15:38:54.038Z,1232
2016-10-12T15:39:14.647Z,1228
2016-10-12T15:39:35.781Z,1216
2016-10-12T15:39:56.453Z,1200
2016-10-12T15:40:17.072Z,1212
2016-10-12T15:40:38.273Z,1224
2016-10-12T15:40:58.909Z,1200
2016-10-12T15:41:19.473Z,1136
2016-10-12T15:41:40.768Z,1056
2016-10-12T15:42:01.414Z,1008
2016-10-12T15:42:22.013Z,984
2016-10-12T15:42:42.624Z,980
2016-10-12T15:43:04.193Z,964
2016-10-12T15:43:24.800Z,932
2016-10-12T15:43:45.400Z,880
2016-10-12T15:44:06.931Z,828
2016-10-12T15:44:28.222Z,784
2016-10-12T15:44:48.824Z,744
2016-10-12T15:45:10.323Z,720
2016-10-12T15:45:31.258Z,712
2016-10-12T15:45:51.873Z,728
2016-10-12T15:46:12.526Z,740
2016-10-12T15:46:33.768Z,728
2016-10-12T15:46:55.262Z,668
2016-10-12T15:47:15.842Z,604
2016-10-12T15:47:36.469Z,556
2016-10-12T15:47:57.048Z,520
2016-10-12T15:48:17.894Z,500
2016-10-12T15:48:39.195Z,468
2016-10-12T15:48:59.856Z,436
2016-10-12T15:49:20.471Z,404
2016-10-12T15:49:41.105Z,392
2016-10-12T15:50:01.709Z,388
2016-10-12T15:50:22.535Z,384
2016-10-12T15:50:43.127Z,392
2016-10-12T15:51:03.719Z,404
2016-10-12T15:51:25.307Z,416
2016-10-12T15:51:45.928Z,408
2016-10-12T15:52:07.269Z,392
2016-10-12T15:52:27.849Z,380
2016-10-12T15:52:48.515Z,368
2016-10-12T15:53:10.781Z,356
2016-10-12T15:53:32.184Z,340
2016-10-12T15:53:52.815Z,332
2016-10-12T15:54:14.287Z,324
2016-10-12T15:54:34.904Z,332
2016-10-12T15:54:55.548Z,328
2016-10-12T15:55:16.144Z,320
2016-10-12T15:55:37.248Z,316
2016-10-12T15:55:58.775Z,308
2016-10-12T15:56:19.439Z,300
2016-10-12T15:56:40.073Z,292
2016-10-12T15:57:00.870Z,288
2016-10-12T15:57:21.461Z,276
2016-10-12T15:57:42.086Z,256
2016-10-12T15:58:03.274Z,236
2016-10-12T15:58:23.931Z,224
2016-10-12T15:58:44.547Z,220
2016-10-12T15:59:05.191Z,232
2016-10-12T15:59:25.819Z,248
2016-10-12T15:59:47.202Z,276
2016-10-12T16:00:07.879Z,296
2016-10-12T16:00:29.784Z,292
2016-10-12T16:00:50.521Z,288
2016-10-12T16:01:11.120Z,288
2016-10-12T16:01:31.899Z,288
2016-10-12T16:01:52.515Z,292
2016-10-12T16:02:13.822Z,292
2016-10-12T16:02:34.447Z,280
2016-10-12T16:02:55.068Z,260
2016-10-12T16:03:15.707Z,236
2016-10-12T16:03:37.780Z,212
2016-10-12T16:03:58.352Z,196
2016-10-12T16:04:18.934Z,184
2016-10-12T16:04:39.528Z,172
2016-10-12T16:04:59.785Z,160
2016-10-12T16:05:20.388Z,152
2016-10-12T16:05:41.076Z,148
2016-10-12T16:06:01.682Z,152
2016-10-12T16:06:22.353Z,152
2016-10-12T16:06:42.964Z,160
2016-10-12T16:07:03.579Z,156
2016-10-12T16:07:24.240Z,156
2016-10-12T16:07:45.777Z,152
2016-10-12T16:08:06.367Z,152
2016-10-12T16:08:27.013Z,148
2016-10-12T16:08:47.605Z,140
2016-10-12T16:09:08.195Z,128
2016-10-12T16:09:29.759Z,120
2016-10-12T16:09:50.829Z,108
2016-10-12T16:10:11.450Z,100
2016-10-12T16:10:32.099Z,96
2016-10-12T16:10:52.673Z,92
2016-10-12T16:11:13.300Z,88
2016-10-12T16:11:34.699Z,84
2016-10-12T16:11:56.325Z,84
2016-10-12T16:12:16.938Z,84
2016-10-12T16:12:37.582Z,80
2016-10-12T16:12:58.198Z,80
2016-10-12T16:13:19.704Z,72
2016-10-12T16:13:40.347Z,72
2016-10-12T16:14:01.788Z,68
2016-10-12T16:14:23.256Z,64
2016-10-12T16:14:43.883Z,68
2016-10-12T16:15:05.282Z,72
2016-10-12T16:15:25.928Z,72
2016-10-12T16:15:47.218Z,68
2016-10-12T16:16:09.286Z,72
2016-10-12T16:16:29.929Z,76
2016-10-12T16:16:50.558Z,80
2016-10-12T16:17:11.848Z,80
2016-10-12T16:17:32.462Z,80
2016-10-12T16:17:53.754Z,80
2016-10-12T16:18:14.408Z,76
2016-10-12T16:18:35.122Z,68
2016-10-12T16:18:56.870Z,60
2016-10-12T16:19:17.518Z,60
2016-10-12T16:19:38.096Z,52
2016-10-12T16:19:58.739Z,44
2016-10-12T16:20:20.305Z,40
2016-10-12T16:20:40.932Z,36
2016-10-12T16:21:02.224Z,32
2016-10-12T16:21:22.861Z,32
2016-10-12T16:21:43.479Z,28
2016-10-12T16:22:04.127Z,20
2016-10-12T16:22:24.734Z,16
2016-10-12T16:22:47.713Z,20
2016-10-12T16:23:09.783Z,20
2016-10-12T16:23:30.477Z,24
2016-10-12T16:23:51.765Z,20
2016-10-12T16:24:12.380Z,20
2016-10-12T16:24:33.025Z,20
2016-10-12T16:24:54.262Z,20
2016-10-12T16:25:14.923Z,20
2016-10-12T16:25:35.504Z,16
2016-10-12T16:25:56.830Z,16
2016-10-12T16:26:17.452Z,16
2016-10-12T16:26:38.079Z,12
2016-10-12T16:26:58.684Z,12
2016-10-12T16:27:20.213Z,16
2016-10-12T16:27:40.814Z,16
2016-10-12T16:28:03.204Z,12
2016-10-12T16:28:23.938Z,16
2016-10-12T16:28:44.517Z,12
2016-10-12T16:29:06.316Z,12
2016-10-12T16:29:26.985Z,12
2016-10-12T16:29:47.644Z,16
2016-10-12T16:30:09.759Z,16
2016-10-12T16:30:30.365Z,12
2016-10-12T16:30:51.040Z,12
2016-10-12T16:31:11.668Z,8
2016-10-12T16:31:32.311Z,12
2016-10-12T16:31:52.919Z,8
2016-10-12T16:32:13.523Z,12
2016-10-12T16:32:34.108Z,8
2016-10-12T16:32:57.202Z,12
2016-10-12T16:33:17.784Z,8
2016-10-12T16:33:38.350Z,8
2016-10-12T16:33:59.242Z,8
2016-10-12T16:34:19.833Z,8
2016-10-12T16:34:41.214Z,4
2016-10-12T16:35:01.821Z,8
2016-10-12T16:35:22.481Z,8
2016-10-12T16:35:43.156Z,4
2016-10-12T16:36:04.386Z,8
2016-10-12T16:36:25.725Z,4
2016-10-12T16:36:47.244Z,4
2016-10-12T16:37:07.838Z,4
2016-10-12T16:37:29.224Z,8
2016-10-12T16:37:49.856Z,4
2016-10-12T16:38:10.483Z,4
2016-10-12T16:38:31.105Z,4
2016-10-12T16:38:51.722Z,0
2016-10-12T16:39:12.356Z,0
2016-10-12T16:39:32.976Z,4
2016-10-12T16:39:53.566Z,4
2016-10-12T16:40:14.831Z,4
2016-10-12T16:40:35.449Z,0
2016-10-12T16:40:56.069Z,0
2016-10-12T16:41:18.284Z,0
2016-10-12T16:41:38.894Z,0
2016-10-12T16:42:00.293Z,0
2016-10-12T16:42:20.886Z,4
2016-10-12T16:42:41.170Z,4
2016-10-12T16:43:02.716Z,0
2016-10-12T16:43:23.314Z,0
2016-10-12T16:43:44.887Z,0
2016-10-12T16:44:05.506Z,0
2016-10-12T16:44:26.884Z,0
2016-10-12T16:44:47.488Z,0
2016-10-12T16:45:08.099Z,0
2016-10-12T16:45:28.726Z,0
2016-10-12T16:45:49.331Z,0
2016-10-12T16:46:09.914Z,0
2016-10-12T16:46:30.515Z,0
2016-10-12T16:46:51.771Z,0
2016-10-12T16:47:12.361Z,0
2016-10-12T16:47:33.790Z,0
2016-10-12T16:47:55.215Z,0
2016-10-12T16:48:15.896Z,0
2016-10-12T16:48:36.739Z,0
2016-10-12T16:48:57.410Z,0
2016-10-12T16:49:19.721Z,0
2016-10-12T16:49:40.305Z,0
2016-10-12T16:50:00.918Z,0
2016-10-12T16:50:21.662Z,0
2016-10-12T16:50:42.370Z,0
2016-10-12T16:51:03.777Z,0
2016-10-12T16:51:24.388Z,0
2016-10-12T16:51:45.069Z,0
2016-10-12T16:52:05.693Z,0
2016-10-12T16:52:26.303Z,0
2016-10-12T16:52:46.922Z,0
2016-10-12T16:53:07.549Z,0
2016-10-12T16:53:28.233Z,0
2016-10-12T16:53:48.884Z,0
2016-10-12T16:54:09.484Z,0
2016-10-12T16:54:30.073Z,0
2016-10-12T16:54:51.725Z,0
2016-10-12T16:55:12.937Z,0
2016-10-12T16:55:33.664Z,0
2016-10-12T16:55:54.305Z,0
2016-10-12T16:56:14.903Z,0
2016-10-12T16:56:36.301Z,0
2016-10-12T16:56:57.793Z,0
2016-10-12T16:57:18.395Z,0
2016-10-12T16:57:39.919Z,0
2016-10-12T16:58:00.540Z,0
2016-10-12T16:58:21.777Z,0
2016-10-12T16:58:43.215Z,0
2016-10-12T16:59:05.330Z,0
2016-10-12T16:59:25.990Z,0
2016-10-12T16:59:46.633Z,0
2016-10-12T17:00:07.415Z,0
2016-10-12T17:00:28.538Z,0
2016-10-12T17:00:49.190Z,0
2016-10-12T17:01:10.299Z,0
2016-10-12T17:01:30.958Z,0
2016-10-12T17:01:51.597Z,0
2016-10-12T17:02:12.256Z,0
2016-10-12T17:02:32.933Z,0
2016-10-12T17:02:54.304Z,0
2016-10-12T17:03:15.005Z,0
2016-10-12T17:03:36.301Z,0
2016-10-12T17:03:56.887Z,0
2016-10-12T17:04:17.479Z,0
2016-10-12T17:04:38.078Z,0
2016-10-12T17:04:58.672Z,0
2016-10-12T17:05:19.344Z,0
2016-10-12T17:05:39.980Z,0
2016-10-12T17:06:02.233Z,0
2016-10-12T17:06:22.838Z,0
2016-10-12T17:06:45.716Z,0
2016-10-12T17:07:06.349Z,0
2016-10-12T17:07:26.981Z,0
2016-10-12T17:07:47.602Z,0
2016-10-12T17:08:08.732Z,0
2016-10-12T17:08:29.351Z,0
2016-10-12T17:08:49.964Z,0
2016-10-12T17:09:10.568Z,0
2016-10-12T17:09:31.152Z,0
2016-10-12T17:09:51.724Z,0
2016-10-12T17:10:13.399Z,0
2016-10-12T17:10:34.012Z,0
2016-10-12T17:10:54.620Z,0
2016-10-12T17:11:15.267Z,0
2016-10-12T17:11:36.813Z,0
2016-10-12T17:11:57.419Z,0
2016-10-12T17:12:18.047Z,0
2016-10-12T17:12:38.704Z,0
2016-10-12T17:12:59.290Z,0
2016-10-12T17:13:19.903Z,0
2016-10-12T17:13:40.527Z,0
2016-10-12T17:14:01.821Z,0
2016-10-12T17:14:23.320Z,0
2016-10-12T17:14:43.951Z,0
2016-10-12T17:15:04.602Z,0
2016-10-12T17:15:25.732Z,0
2016-10-12T17:15:46.417Z,0
2016-10-12T17:16:07.030Z,0
2016-10-12T17:16:27.687Z,0
2016-10-12T17:16:48.403Z,0
2016-10-12T17:17:09.057Z,0
2016-10-12T17:17:29.671Z,0
2016-10-12T17:17:50.298Z,0
2016-10-12T17:18:10.879Z,0
2016-10-12T17:18:31.467Z,0
2016-10-12T17:18:52.064Z,0
2016-10-12T17:19:12.692Z,0
2016-10-12T17:19:34.307Z,0
2016-10-12T17:19:54.912Z,0
2016-10-12T17:20:16.301Z,0
2016-10-12T17:20:37.038Z,0
2016-10-12T17:20:58.503Z,0
2016-10-12T17:21:19.558Z,0
2016-10-12T17:21:41.235Z,0
2016-10-12T17:22:01.889Z,0
2016-10-12T17:22:22.483Z,0
2016-10-12T17:22:43.091Z,0
2016-10-12T17:23:03.748Z,0
2016-10-12T17:23:24.312Z,0
2016-10-12T17:23:44.994Z,0
2016-10-12T17:24:05.568Z,0
2016-10-12T17:24:26.170Z,0
2016-10-12T17:24:46.806Z,0
2016-10-12T17:25:08.320Z,0
2016-10-12T17:25:29.738Z,0
2016-10-12T17:25:50.312Z,0
2016-10-12T17:26:11.942Z,0
2016-10-12T17:26:32.607Z,0
2016-10-12T17:26:53.207Z,0
2016-10-12T17:27:14.762Z,0
2016-10-12T17:27:35.361Z,0
2016-10-12T17:27:56.735Z,0
2016-10-12T17:28:18.301Z,0
2016-10-12T17:28:38.893Z,0
2016-10-12T17:28:59.537Z,0
2016-10-12T17:29:21.740Z,0
2016-10-12T17:29:43.294Z,0
2016-10-12T17:30:04.801Z,0
2016-10-12T17:30:26.240Z,0
2016-10-12T17:30:46.876Z,0
2016-10-12T17:31:07.475Z,0
2016-10-12T17:31:28.116Z,0
2016-10-12T17:31:53.975Z,0
2016-10-12T17:32:14.685Z,0
2016-10-12T17:32:36.241Z,0
2016-10-12T17:32:57.875Z,0
2016-10-12T17:33:18.590Z,0
2016-10-12T17:33:39.852Z,0
2016-10-12T17:34:01.335Z,0
2016-10-12T17:34:21.988Z,0
2016-10-12T17:34:42.601Z,0
2016-10-12T17:35:03.229Z,0
2016-10-12T17:35:23.912Z,0
2016-10-12T17:35:44.611Z,0
2016-10-12T17:36:05.818Z,0
2016-10-12T17:36:27.795Z,0
2016-10-12T17:36:49.428Z,0
2016-10-12T17:37:10.120Z,0
2016-10-12T17:37:30.813Z,0
2016-10-12T17:37:51.440Z,0
2016-10-12T17:38:12.188Z,0
2016-10-12T17:38:33.838Z,0
2016-10-12T17:38:54.580Z,0
2016-10-12T17:39:15.296Z,0
2016-10-12T17:39:36.239Z,0
2016-10-12T17:39:57.495Z,0
2016-10-12T17:40:18.816Z,0
2016-10-12T17:40:40.242Z,0
2016-10-12T17:41:00.967Z,0
2016-10-12T17:41:22.344Z,0
2016-10-12T17:41:43.126Z,0
2016-10-12T17:42:04.839Z,0
2016-10-12T17:42:26.111Z,0
2016-10-12T17:42:47.519Z,0
2016-10-12T17:43:08.343Z,0
2016-10-12T17:43:29.234Z,0
2016-10-12T17:43:50.200Z,0
2016-10-12T17:44:11.021Z,0
2016-10-12T17:44:32.526Z,0
2016-10-12T17:44:53.813Z,0
2016-10-12T17:45:14.579Z,0
2016-10-12T17:45:35.311Z,0
2016-10-12T17:45:56.949Z,0
2016-10-12T17:46:17.665Z,0
2016-10-12T17:46:39.373Z,0
2016-10-12T17:47:00.111Z,0
2016-10-12T17:47:20.882Z,0
2016-10-12T17:47:43.287Z,0
2016-10-12T17:48:04.307Z,0
2016-10-12T17:48:25.319Z,0
2016-10-12T17:48:47.980Z,0
2016-10-12T17:49:08.884Z,0
2016-10-12T17:49:29.724Z,0
2016-10-12T17:49:51.249Z,0
2016-10-12T17:50:12.105Z,0
2016-10-12T17:50:33.002Z,0
2016-10-12T17:50:53.896Z,0
2016-10-12T17:51:14.904Z,0
2016-10-12T17:51:41.501Z,0
2016-10-12T17:52:03.166Z,0
2016-10-12T17:52:24.196Z,0
2016-10-12T17:52:45.261Z,0
2016-10-12T17:53:05.978Z,0
2016-10-12T17:53:27.294Z,0
2016-10-12T17:53:48.608Z,0
2016-10-12T17:54:10.018Z,0
2016-10-12T17:54:31.479Z,0
2016-10-12T17:54:52.853Z,0
2016-10-12T17:55:14.265Z,0
2016-10-12T17:55:36.386Z,0
2016-10-12T17:55:57.799Z,0
2016-10-12T17:56:19.110Z,0
2016-10-12T17:56:41.359Z,0
2016-10-12T17:57:03.108Z,0
2016-10-12T17:57:25.252Z,0
2016-10-12T17:57:47.306Z,0
2016-10-12T17:58:08.600Z,0
2016-10-12T17:58:31.435Z,0
2016-10-12T17:58:53.594Z,0
2016-10-12T17:59:14.830Z,0
2016-10-12T17:59:36.081Z,0
2016-10-12T17:59:57.898Z,0
2016-10-12T18:00:19.144Z,0
2016-10-12T18:00:40.382Z,0
2016-10-12T18:01:01.651Z,0
2016-10-12T18:01:22.934Z,0
2016-10-12T18:01:44.886Z,0
2016-10-12T18:02:06.814Z,0
2016-10-12T18:02:27.787Z,0
2016-10-12T18:02:48.731Z,0
2016-10-12T18:03:09.857Z,0
2016-10-12T18:03:31.595Z,0
2016-10-12T18:03:53.410Z,0
2016-10-12T18:04:16.201Z,0
2016-10-12T18:04:37.402Z,0
2016-10-12T18:04:58.652Z,0
2016-10-12T18:05:20.790Z,0
2016-10-12T18:05:42.062Z,0
2016-10-12T18:06:03.300Z,0
2016-10-12T18:06:24.646Z,0
2016-10-12T18:06:46.686Z,0
2016-10-12T18:07:09.399Z,0
2016-10-12T18:07:32.257Z,0
2016-10-12T18:07:54.171Z,0
2016-10-12T18:08:15.415Z,0
2016-10-12T18:08:36.723Z,0
2016-10-12T18:08:57.925Z,0
2016-10-12T18:09:19.157Z,0
2016-10-12T18:09:40.402Z,0
2016-10-12T18:10:03.251Z,0
2016-10-12T18:10:24.590Z,0
2016-10-12T18:10:45.833Z,0
2016-10-12T18:11:07.127Z,0
2016-10-12T18:11:28.373Z,0
2016-10-12T18:12:04.215Z,0
2016-10-12T18:12:26.040Z,0
2016-10-12T18:12:48.689Z,0
2016-10-12T18:13:09.986Z,0
2016-10-12T18:13:32.758Z,0
2016-10-12T18:13:54.500Z,0
2016-10-12T18:14:15.865Z,0
2016-10-12T18:14:37.196Z,0
2016-10-12T18:14:58.539Z,0
2016-10-12T18:15:19.808Z,0
2016-10-12T18:15:41.140Z,0
2016-10-12T18:16:02.487Z,0
2016-10-12T18:16:25.196Z,0
2016-10-12T18:16:46.520Z,0
2016-10-12T18:17:10.545Z,0
2016-10-12T18:17:31.932Z,0
2016-10-12T18:17:53.319Z,0
2016-10-12T18:18:14.557Z,0
2016-10-12T18:18:36.812Z,0
2016-10-12T18:18:58.119Z,0
2016-10-12T18:19:19.436Z,0
2016-10-12T18:19:40.711Z,0
2016-10-12T18:20:02.793Z,0
2016-10-12T18:20:24.926Z,0
2016-10-12T18:20:46.238Z,0
2016-10-12T18:21:07.589Z,0
2016-10-12T18:21:28.833Z,0
2016-10-12T18:21:50.078Z,0
2016-10-12T18:22:11.371Z,0
2016-10-12T18:22:32.752Z,0
2016-10-12T18:22:54.052Z,0
2016-10-12T18:23:16.217Z,0
2016-10-12T18:23:37.496Z,0
2016-10-12T18:23:58.914Z,0
2016-10-12T18:24:20.166Z,0
2016-10-12T18:24:42.423Z,0
2016-10-12T18:25:05.339Z,0
2016-10-12T18:25:26.765Z,0
2016-10-12T18:25:48.874Z,0
2016-10-12T18:26:10.732Z,0
2016-10-12T18:26:33.015Z,0
2016-10-12T18:26:54.344Z,0
2016-10-12T18:27:16.263Z,0
2016-10-12T18:27:37.597Z,0
2016-10-12T18:27:58.922Z,0
2016-10-12T18:28:20.455Z,0
2016-10-12T18:28:41.694Z,0
2016-10-12T18:29:03.817Z,0
2016-10-12T18:29:24.861Z,0
2016-10-12T18:29:46.366Z,0
2016-10-12T18:30:08.502Z,0
2016-10-12T18:30:29.785Z,0
2016-10-12T18:30:51.801Z,0
2016-10-12T18:31:13.180Z,0
2016-10-12T18:31:34.542Z,0
2016-10-12T18:31:55.952Z,0
2016-10-12T18:32:17.169Z,0
2016-10-12T18:32:38.525Z,0
2016-10-12T18:32:59.878Z,0
2016-10-12T18:33:21.209Z,0
2016-10-12T18:33:42.489Z,0
2016-10-12T18:34:03.768Z,0
2016-10-12T18:34:27.545Z,0
2016-10-12T18:34:50.018Z,0
2016-10-12T18:35:11.392Z,0
2016-10-12T18:35:32.787Z,0
2016-10-12T18:35:54.967Z,0
2016-10-12T18:36:16.849Z,0
2016-10-12T18:36:38.101Z,0
2016-10-12T18:36:59.349Z,0
2016-10-12T18:37:21.353Z,0
2016-10-12T18:37:43.592Z,0
2016-10-12T18:38:05.276Z,0
2016-10-12T18:38:26.561Z,0
2016-10-12T18:38:47.884Z,0
2016-10-12T18:39:09.144Z,0
2016-10-12T18:39:30.451Z,0
2016-10-12T18:39:51.870Z,0
2016-10-12T18:40:13.150Z,0
2016-10-12T18:40:34.449Z,0
2016-10-12T18:40:55.785Z,0
2016-10-12T18:41:17.061Z,0
2016-10-12T18:41:39.673Z,0
2016-10-12T18:42:00.922Z,0
2016-10-12T18:42:22.915Z,0
2016-10-12T18:42:44.188Z,0
2016-10-12T18:43:05.507Z,0
2016-10-12T18:43:26.737Z,0
2016-10-12T18:43:48.063Z,0
2016-10-12T18:44:09.356Z,0
2016-10-12T18:44:30.623Z,0
2016-10-12T18:44:52.535Z,0
2016-10-12T18:45:13.867Z,0
2016-10-12T18:45:35.174Z,0
2016-10-12T18:45:56.443Z,0
2016-10-12T18:46:17.683Z,0
2016-10-12T18:46:38.941Z,0
2016-10-12T18:47:00.146Z,0
2016-10-12T18:47:21.377Z,0
2016-10-12T18:47:42.633Z,0
2016-10-12T18:48:03.907Z,0
2016-10-12T18:48:25.189Z,0
2016-10-12T18:48:47.140Z,0
2016-10-12T18:49:09.348Z,0
2016-10-12T18:49:31.075Z,0
2016-10-12T18:49:52.356Z,0
2016-10-12T18:50:13.604Z,0
2016-10-12T18:50:34.852Z,0
2016-10-12T18:50:57.773Z,0
2016-10-12T18:51:30.421Z,0
2016-10-12T18:51:51.723Z,0
2016-10-12T18:52:12.930Z,0
2016-10-12T18:52:34.179Z,0
2016-10-12T18:52:55.462Z,0
2016-10-12T18:53:16.766Z,0
2016-10-12T18:53:38.032Z,0
2016-10-12T18:54:00.774Z,0
2016-10-12T18:54:22.046Z,0
2016-10-12T18:54:43.377Z,0
2016-10-12T18:55:05.424Z,0
2016-10-12T18:55:26.829Z,0
2016-10-12T18:55:48.230Z,0
2016-10-12T18:56:09.772Z,0
2016-10-12T18:56:31.106Z,0
2016-10-12T18:56:52.474Z,0
2016-10-12T18:57:13.857Z,0
2016-10-12T18:57:35.777Z,0
2016-10-12T18:57:57.145Z,0
2016-10-12T18:58:19.449Z,0
2016-10-12T18:58:42.437Z,0
2016-10-12T18:59:03.851Z,0
2016-10-12T18:59:25.198Z,0
2016-10-12T18:59:46.643Z,0
2016-10-12T19:00:08.719Z,0
2016-10-12T19:00:29.749Z,0
2016-10-12T19:00:51.108Z,0
2016-10-12T19:01:13.279Z,0
2016-10-12T19:01:34.605Z,0
2016-10-12T19:01:56.831Z,0
2016-10-12T19:02:18.073Z,0
2016-10-12T19:02:40.052Z,0
2016-10-12T19:03:02.349Z,0
2016-10-12T19:03:23.732Z,0
2016-10-12T19:03:46.184Z,0
2016-10-12T19:04:07.661Z,0
2016-10-12T19:04:29.133Z,0
2016-10-12T19:04:51.338Z,0
2016-10-12T19:05:12.875Z,0
2016-10-12T19:05:34.389Z,0
2016-10-12T19:05:56.680Z,0
2016-10-12T19:06:18.856Z,0
2016-10-12T19:06:40.424Z,0
2016-10-12T19:07:02.570Z,0
2016-10-12T19:07:24.027Z,0
2016-10-12T19:07:45.369Z,0
2016-10-12T19:08:06.871Z,0
2016-10-12T19:08:28.198Z,0
2016-10-12T19:08:49.534Z,0
2016-10-12T19:09:11.779Z,0
2016-10-12T19:09:33.177Z,0
2016-10-12T19:09:54.511Z,0
2016-10-12T19:10:15.874Z,0
2016-10-12T19:10:37.934Z,0
2016-10-12T19:10:59.223Z,0
2016-10-12T19:11:20.611Z,0
2016-10-12T19:11:42.017Z,0